Main page
METAR-TAF:

METAR-TAF

Airports :

Powell River Airport

Powell River, British Columbia, Canada

latitude: 49-50N, longitude: 124-30W, elevation: 130 m

Current weather observation

The report was made 59 minutes ago, at 17:00 UTC
Wind 7 kt from the South/Southeast, varying between East/Southeast and South
Temperature 16°C
Humidity 68%
Pressure 1014 hPa
Visibility: 48.3 km
Scattered clouds at a height of 6100 ft
Broken clouds at a height of 7000 ft
Overcast at a height of 9600 ft

METAR: CYPW 231700Z 15007KT 110V170 30SM SCT061 BKN070 OVC096 16/10 A2995 RMK SC3AC4AC1 CU ASOCTD SLP143

Time: 10:59 (17:59 UTC)


TAF: missing

Weather observations and forecasts of more than 4000 airports (METAR and TAF reports).

The available stations are represented by yellow and red dots on the map.

Hover mouse over dot to see the name of the station.

Then click to see weather observations and forecasts.

To change the map : click on the green buttons with a black cross to zoom in, on the green button with a dash to zoom out, or on the green arrows for adjacent maps.


METAR-TAF: